createdAt,value
2019-04-16T00:00:42.514Z,9.06
2019-04-16T00:01:38.892Z,8.88
2019-04-16T00:02:37.860Z,8.91
2019-04-16T00:03:37.864Z,8.76
2019-04-16T00:04:37.865Z,8.75
2019-04-16T00:05:37.839Z,8.78
2019-04-16T00:06:37.854Z,8.78
2019-04-16T00:07:37.817Z,8.60
2019-04-16T00:08:37.805Z,8.68
2019-04-16T00:09:37.854Z,8.70
2019-04-16T00:10:37.777Z,8.73
2019-04-16T00:11:37.777Z,8.73
2019-04-16T00:12:37.806Z,8.73
2019-04-16T00:13:37.769Z,8.75
2019-04-16T00:14:37.775Z,8.79
2019-04-16T00:15:40.948Z,8.73
2019-04-16T00:16:37.726Z,8.71
2019-04-16T00:17:37.707Z,8.63
2019-04-16T00:18:37.703Z,8.58
2019-04-16T00:19:37.750Z,8.58
2019-04-16T00:20:38.115Z,8.49
2019-04-16T00:21:38.452Z,8.54
2019-04-16T00:22:37.648Z,8.57
2019-04-16T00:23:37.634Z,8.49
2019-04-16T00:24:37.647Z,8.43
2019-04-16T00:25:37.620Z,8.43
2019-04-16T00:26:37.605Z,8.45
2019-04-16T00:27:37.627Z,8.40
2019-04-16T00:28:37.590Z,8.42
2019-04-16T00:29:39.653Z,8.36
2019-04-16T00:30:37.562Z,8.34
2019-04-16T00:31:37.774Z,8.28
2019-04-16T00:32:38.841Z,8.27
2019-04-16T00:33:39.390Z,8.27
2019-04-16T00:34:38.543Z,8.18
2019-04-16T00:35:37.510Z,8.21
2019-04-16T00:36:37.499Z,8.12
2019-04-16T00:37:37.490Z,8.10
2019-04-16T00:38:40.850Z,8.17
2019-04-16T00:39:37.499Z,8.06
2019-04-16T00:40:37.466Z,8.10
2019-04-16T00:41:37.454Z,8.03
2019-04-16T00:42:37.440Z,8.04
2019-04-16T00:43:37.445Z,7.99
2019-04-16T00:44:37.422Z,7.99
2019-04-16T00:45:37.431Z,7.95
2019-04-16T00:46:37.407Z,7.91
2019-04-16T00:47:37.394Z,7.96
2019-04-16T00:48:37.406Z,7.91
2019-04-16T00:49:38.111Z,7.91
2019-04-16T00:50:37.369Z,7.92
2019-04-16T00:51:37.353Z,7.88
2019-04-16T00:52:37.703Z,7.67
2019-04-16T00:53:39.217Z,7.70
2019-04-16T00:54:39.339Z,7.74
2019-04-16T00:55:37.316Z,7.74
2019-04-16T00:56:37.301Z,7.62
2019-04-16T00:57:37.290Z,7.55
2019-04-16T00:58:37.297Z,7.63
2019-04-16T00:59:37.333Z,7.62
2019-04-16T01:00:37.272Z,7.62
2019-04-16T01:01:37.247Z,7.51
2019-04-16T01:02:37.230Z,7.60
2019-04-16T01:03:37.222Z,7.58
2019-04-16T01:04:37.222Z,7.51
2019-04-16T01:05:37.229Z,7.48
2019-04-16T01:06:37.920Z,7.51
2019-04-16T01:07:37.202Z,7.50
2019-04-16T01:08:37.186Z,7.48
2019-04-16T01:09:37.172Z,7.45
2019-04-16T01:10:37.169Z,7.52
2019-04-16T01:11:37.135Z,7.52
2019-04-16T01:12:37.130Z,7.45
2019-04-16T01:13:37.119Z,7.45
2019-04-16T01:14:37.108Z,7.41
2019-04-16T01:15:37.167Z,7.50
2019-04-16T01:16:37.088Z,7.36
2019-04-16T01:17:37.129Z,7.34
2019-04-16T01:18:38.691Z,7.39
2019-04-16T01:19:38.333Z,7.34
2019-04-16T01:20:37.086Z,7.36
2019-04-16T01:21:37.042Z,7.32
2019-04-16T01:22:37.029Z,7.24
2019-04-16T01:23:37.018Z,7.16
2019-04-16T01:24:37.005Z,7.24
2019-04-16T01:25:37.012Z,6.97
2019-04-16T01:26:36.979Z,7.01
2019-04-16T01:27:36.973Z,7.15
2019-04-16T01:28:36.974Z,7.11
2019-04-16T01:29:36.959Z,7.04
2019-04-16T01:30:37.202Z,7.18
2019-04-16T01:31:38.761Z,7.12
2019-04-16T01:32:36.927Z,7.14
2019-04-16T01:33:36.915Z,7.01
2019-04-16T01:34:36.908Z,6.97
2019-04-16T01:35:36.899Z,6.94
2019-04-16T01:36:36.877Z,7.01
2019-04-16T01:37:36.875Z,7.11
2019-04-16T01:38:36.911Z,7.01
2019-04-16T01:39:36.851Z,6.94
2019-04-16T01:40:36.853Z,6.87
2019-04-16T01:41:36.827Z,6.89
2019-04-16T01:42:36.815Z,6.87
2019-04-16T01:43:36.812Z,6.86
2019-04-16T01:44:36.793Z,6.90
2019-04-16T01:45:36.821Z,6.89
2019-04-16T01:46:36.769Z,6.97
2019-04-16T01:47:37.348Z,6.86
2019-04-16T01:48:38.946Z,6.91
2019-04-16T01:49:39.300Z,6.86
2019-04-16T01:50:37.805Z,6.81
2019-04-16T01:51:37.913Z,6.75
2019-04-16T01:52:36.738Z,6.83
2019-04-16T01:53:36.706Z,6.76
2019-04-16T01:54:36.692Z,6.81
2019-04-16T01:55:36.712Z,6.76
2019-04-16T01:56:36.668Z,6.69
2019-04-16T01:57:36.663Z,6.82
2019-04-16T01:58:36.651Z,6.68
2019-04-16T01:59:36.638Z,6.81
2019-04-16T02:00:39.205Z,6.72
2019-04-16T02:01:36.621Z,6.68
2019-04-16T02:02:36.609Z,6.61
2019-04-16T02:03:36.627Z,6.57
2019-04-16T02:04:36.585Z,6.68
2019-04-16T02:05:36.581Z,6.75
2019-04-16T02:06:36.580Z,6.65
2019-04-16T02:07:36.550Z,6.60
2019-04-16T02:08:36.557Z,6.60
2019-04-16T02:09:36.531Z,6.58
2019-04-16T02:10:38.360Z,6.55
2019-04-16T02:11:38.837Z,6.53
2019-04-16T02:12:36.498Z,6.43
2019-04-16T02:13:36.487Z,6.43
2019-04-16T02:14:36.476Z,6.50
2019-04-16T02:15:36.466Z,6.57
2019-04-16T02:16:36.469Z,6.54
2019-04-16T02:17:36.472Z,6.45
2019-04-16T02:18:36.445Z,6.57
2019-04-16T02:19:36.483Z,6.54
2019-04-16T02:20:39.248Z,6.53
2019-04-16T02:21:38.995Z,6.45
2019-04-16T02:22:36.404Z,6.45
2019-04-16T02:23:36.382Z,6.46
2019-04-16T02:24:36.390Z,6.45
2019-04-16T02:25:36.363Z,6.36
2019-04-16T02:26:36.362Z,6.46
2019-04-16T02:27:36.353Z,6.27
2019-04-16T02:28:36.346Z,6.21
2019-04-16T02:29:36.333Z,6.30
2019-04-16T02:30:39.458Z,6.19
2019-04-16T02:31:36.314Z,6.21
2019-04-16T02:32:36.300Z,6.24
2019-04-16T02:33:36.282Z,6.20
2019-04-16T02:34:36.273Z,6.19
2019-04-16T02:35:36.277Z,6.27
2019-04-16T02:36:36.311Z,6.27
2019-04-16T02:37:37.531Z,6.17
2019-04-16T02:38:36.232Z,6.21
2019-04-16T02:39:47.816Z,6.11
2019-04-16T02:40:37.212Z,6.06
2019-04-16T02:41:36.208Z,6.17
2019-04-16T02:42:36.207Z,6.05
2019-04-16T02:43:41.018Z,6.10
2019-04-16T02:44:37.162Z,6.06
2019-04-16T02:45:36.164Z,6.06
2019-04-16T02:46:36.161Z,6.06
2019-04-16T02:47:40.247Z,6.13
2019-04-16T02:48:37.124Z,6.03
2019-04-16T02:49:36.112Z,6.10
2019-04-16T02:50:36.109Z,6.10
2019-04-16T02:51:39.876Z,6.01
2019-04-16T02:52:37.104Z,5.92
2019-04-16T02:53:36.069Z,5.96
2019-04-16T02:54:36.060Z,6.01
2019-04-16T02:55:42.532Z,5.98
2019-04-16T02:56:37.038Z,5.95
2019-04-16T02:57:36.040Z,5.95
2019-04-16T02:58:36.045Z,5.88
2019-04-16T02:59:36.022Z,5.70
2019-04-16T03:00:36.062Z,5.83
2019-04-16T03:01:36.031Z,5.80
2019-04-16T03:02:36.031Z,5.77
2019-04-16T03:03:35.971Z,5.77
2019-04-16T03:04:35.966Z,5.78
2019-04-16T03:05:35.960Z,5.80
2019-04-16T03:06:35.935Z,5.80
2019-04-16T03:07:35.943Z,5.75
2019-04-16T03:08:36.849Z,5.75
2019-04-16T03:09:39.805Z,5.77
2019-04-16T03:10:35.921Z,5.69
2019-04-16T03:11:35.916Z,5.73
2019-04-16T03:12:35.912Z,5.74
2019-04-16T03:13:35.872Z,5.74
2019-04-16T03:14:35.859Z,5.73
2019-04-16T03:15:35.862Z,5.75
2019-04-16T03:16:37.899Z,5.69
2019-04-16T03:17:35.836Z,5.70
2019-04-16T03:18:35.807Z,5.75
2019-04-16T03:19:38.781Z,5.73
2019-04-16T03:20:35.794Z,5.65
2019-04-16T03:21:35.790Z,5.65
2019-04-16T03:22:35.780Z,5.62
2019-04-16T03:23:37.549Z,5.63
2019-04-16T03:24:37.505Z,5.59
2019-04-16T03:25:35.741Z,5.63
2019-04-16T03:26:35.739Z,5.62
2019-04-16T03:27:35.743Z,5.56
2019-04-16T03:28:35.710Z,5.63
2019-04-16T03:29:35.716Z,5.56
2019-04-16T03:30:42.122Z,5.63
2019-04-16T03:31:36.677Z,5.52
2019-04-16T03:32:36.318Z,5.55
2019-04-16T03:33:35.652Z,5.58
2019-04-16T03:34:35.666Z,5.55
2019-04-16T03:35:35.642Z,5.60
2019-04-16T03:36:35.620Z,5.58
2019-04-16T03:37:35.631Z,5.59
2019-04-16T03:38:37.461Z,5.55
2019-04-16T03:39:35.596Z,5.56
2019-04-16T03:40:35.577Z,5.52
2019-04-16T03:41:35.569Z,5.55
2019-04-16T03:42:35.557Z,5.42
2019-04-16T03:43:35.556Z,5.51
2019-04-16T03:44:37.277Z,5.55
2019-04-16T03:45:37.566Z,5.51
2019-04-16T03:46:35.532Z,5.40
2019-04-16T03:47:35.504Z,5.48
2019-04-16T03:48:35.504Z,5.40
2019-04-16T03:49:35.483Z,5.40
2019-04-16T03:50:35.719Z,5.45
2019-04-16T03:51:36.577Z,5.38
2019-04-16T03:52:37.436Z,5.37
2019-04-16T03:53:35.453Z,5.35
2019-04-16T03:54:35.431Z,5.40
2019-04-16T03:55:35.421Z,5.32
2019-04-16T03:56:35.410Z,5.33
2019-04-16T03:57:35.419Z,5.30
2019-04-16T03:58:38.161Z,5.33
2019-04-16T03:59:35.381Z,5.32
2019-04-16T04:00:35.367Z,5.38
2019-04-16T04:01:35.357Z,5.30
2019-04-16T04:02:35.347Z,5.33
2019-04-16T04:03:35.357Z,5.29
2019-04-16T04:04:35.334Z,5.26
2019-04-16T04:05:35.822Z,5.24
2019-04-16T04:06:36.552Z,5.22
2019-04-16T04:07:35.296Z,5.19
2019-04-16T04:08:35.301Z,5.19
2019-04-16T04:09:35.283Z,5.24
2019-04-16T04:10:37.108Z,5.17
2019-04-16T04:11:35.256Z,5.29
2019-04-16T04:12:35.252Z,5.19
2019-04-16T04:13:35.248Z,5.19
2019-04-16T04:14:35.223Z,5.20
2019-04-16T04:15:35.212Z,5.15
2019-04-16T04:16:35.202Z,5.20
2019-04-16T04:17:35.668Z,5.17
2019-04-16T04:18:35.194Z,5.15
2019-04-16T04:19:35.174Z,5.15
2019-04-16T04:20:35.160Z,5.17
2019-04-16T04:21:35.152Z,5.20
2019-04-16T04:22:35.139Z,5.17
2019-04-16T04:23:35.144Z,5.14
2019-04-16T04:24:35.145Z,5.12
2019-04-16T04:25:36.413Z,5.20
2019-04-16T04:26:35.098Z,5.11
2019-04-16T04:27:35.097Z,5.06
2019-04-16T04:28:35.176Z,5.06
2019-04-16T04:29:35.250Z,5.06
2019-04-16T04:30:35.071Z,5.08
2019-04-16T04:31:35.047Z,5.05
2019-04-16T04:32:35.386Z,5.09
2019-04-16T04:33:40.908Z,5.08
2019-04-16T04:34:36.027Z,5.11
2019-04-16T04:35:35.046Z,5.06
2019-04-16T04:36:35.017Z,5.09
2019-04-16T04:37:35.043Z,5.08
2019-04-16T04:38:37.404Z,5.12
2019-04-16T04:39:34.995Z,5.14
2019-04-16T04:40:44.394Z,5.05
2019-04-16T04:41:36.001Z,5.08
2019-04-16T04:42:34.950Z,5.09
2019-04-16T04:43:34.989Z,5.11
2019-04-16T04:44:36.946Z,5.06
2019-04-16T04:45:37.725Z,4.97
2019-04-16T04:46:35.977Z,5.01
2019-04-16T04:47:34.886Z,5.01
2019-04-16T04:48:34.880Z,5.04
2019-04-16T04:49:34.884Z,5.09
2019-04-16T04:50:35.443Z,5.06
2019-04-16T04:51:36.400Z,4.99
2019-04-16T04:52:35.838Z,5.04
2019-04-16T04:53:34.818Z,5.06
2019-04-16T04:54:34.818Z,5.02
2019-04-16T04:55:34.801Z,5.05
2019-04-16T04:56:34.797Z,4.97
2019-04-16T04:57:34.796Z,5.06
2019-04-16T04:58:34.958Z,5.06
2019-04-16T04:59:36.884Z,5.02
2019-04-16T05:00:37.515Z,5.04
2019-04-16T05:01:35.754Z,5.08
2019-04-16T05:02:34.722Z,5.04
2019-04-16T05:03:34.716Z,4.97
2019-04-16T05:04:34.745Z,4.99
2019-04-16T05:05:34.691Z,4.99
2019-04-16T05:06:34.684Z,4.99
2019-04-16T05:07:34.670Z,4.96
2019-04-16T05:08:34.659Z,4.91
2019-04-16T05:09:36.481Z,4.97
2019-04-16T05:10:36.799Z,4.97
2019-04-16T05:11:35.627Z,4.88
2019-04-16T05:12:34.618Z,5.05
2019-04-16T05:13:34.608Z,5.01
2019-04-16T05:14:34.612Z,5.02
2019-04-16T05:15:34.594Z,4.99
2019-04-16T05:16:35.098Z,5.04
2019-04-16T05:17:35.471Z,5.06
2019-04-16T05:18:34.556Z,5.04
2019-04-16T05:19:34.556Z,5.06
2019-04-16T05:20:34.535Z,5.06
2019-04-16T05:21:34.535Z,5.06
2019-04-16T05:22:34.517Z,5.05
2019-04-16T05:23:37.547Z,5.08
2019-04-16T05:24:37.474Z,5.06
2019-04-16T05:25:34.564Z,5.06
2019-04-16T05:26:36.469Z,5.04
2019-04-16T05:27:34.466Z,5.08
2019-04-16T05:28:34.477Z,5.05
2019-04-16T05:29:34.491Z,5.05
2019-04-16T05:30:34.438Z,5.12
2019-04-16T05:31:34.433Z,5.09
2019-04-16T05:32:34.424Z,5.06
2019-04-16T05:33:37.198Z,5.02
2019-04-16T05:34:37.096Z,5.08
2019-04-16T05:35:34.378Z,5.05
2019-04-16T05:36:34.376Z,5.05
2019-04-16T05:37:34.360Z,5.06
2019-04-16T05:38:34.347Z,5.11
2019-04-16T05:39:34.348Z,5.15
2019-04-16T05:40:35.270Z,5.12
2019-04-16T05:41:34.325Z,5.17
2019-04-16T05:42:34.315Z,5.15
2019-04-16T05:43:34.310Z,5.15
2019-04-16T05:44:34.295Z,5.14
2019-04-16T05:45:34.448Z,5.17
2019-04-16T05:46:34.264Z,5.17
2019-04-16T05:47:34.352Z,5.23
2019-04-16T05:48:34.243Z,5.27
2019-04-16T05:49:34.255Z,5.29
2019-04-16T05:50:34.252Z,5.37
2019-04-16T05:51:34.211Z,5.32
2019-04-16T05:52:35.882Z,5.45
2019-04-16T05:53:34.194Z,5.35
2019-04-16T05:54:34.200Z,5.41
2019-04-16T05:55:34.172Z,5.41
2019-04-16T05:56:34.168Z,5.40
2019-04-16T05:57:34.157Z,5.42
2019-04-16T05:58:34.143Z,5.40
2019-04-16T05:59:34.572Z,5.45
2019-04-16T06:00:34.121Z,5.55
2019-04-16T06:01:34.108Z,5.47
2019-04-16T06:02:34.101Z,5.56
2019-04-16T06:03:34.086Z,5.56
2019-04-16T06:04:34.076Z,5.55
2019-04-16T06:05:34.093Z,5.59
2019-04-16T06:06:34.055Z,5.62
2019-04-16T06:07:37.747Z,5.67
2019-04-16T06:08:34.035Z,5.74
2019-04-16T06:09:34.023Z,5.74
2019-04-16T06:10:34.019Z,5.80
2019-04-16T06:11:36.534Z,5.88
2019-04-16T06:12:33.994Z,5.88
2019-04-16T06:13:33.981Z,5.90
2019-04-16T06:14:33.971Z,5.93
2019-04-16T06:15:35.842Z,5.98
2019-04-16T06:16:33.950Z,6.03
2019-04-16T06:17:33.952Z,5.98
2019-04-16T06:18:37.103Z,6.08
2019-04-16T06:19:33.944Z,6.13
2019-04-16T06:20:33.979Z,6.16
2019-04-16T06:21:33.912Z,6.13
2019-04-16T06:22:33.895Z,6.14
2019-04-16T06:23:33.877Z,6.27
2019-04-16T06:24:35.874Z,6.19
2019-04-16T06:25:33.876Z,6.13
2019-04-16T06:26:33.871Z,6.30
2019-04-16T06:27:33.887Z,6.24
2019-04-16T06:28:33.839Z,6.33
2019-04-16T06:29:33.883Z,6.45
2019-04-16T06:30:34.130Z,6.46
2019-04-16T06:31:36.288Z,6.50
2019-04-16T06:32:34.795Z,6.51
2019-04-16T06:33:33.787Z,6.54
2019-04-16T06:34:33.762Z,6.57
2019-04-16T06:35:42.916Z,6.58
2019-04-16T06:36:34.749Z,6.65
2019-04-16T06:37:33.730Z,6.65
2019-04-16T06:38:33.724Z,6.68
2019-04-16T06:39:33.709Z,6.75
2019-04-16T06:40:33.711Z,6.76
2019-04-16T06:41:41.518Z,6.81
2019-04-16T06:42:34.682Z,6.75
2019-04-16T06:43:33.668Z,6.89
2019-04-16T06:44:35.005Z,6.89
2019-04-16T06:45:36.962Z,6.91
2019-04-16T06:46:33.637Z,6.94
2019-04-16T06:47:33.629Z,7.00
2019-04-16T06:48:33.616Z,7.07
2019-04-16T06:49:34.604Z,7.07
2019-04-16T06:50:39.677Z,7.18
2019-04-16T06:51:34.609Z,7.19
2019-04-16T06:52:33.595Z,7.15
2019-04-16T06:53:33.573Z,7.24
2019-04-16T06:54:33.565Z,7.29
2019-04-16T06:55:36.060Z,7.36
2019-04-16T06:56:33.533Z,7.41
2019-04-16T06:57:33.535Z,7.44
2019-04-16T06:58:49.895Z,7.45
2019-04-16T06:59:34.502Z,7.51
2019-04-16T07:00:34.999Z,7.57
2019-04-16T07:01:36.778Z,7.55
2019-04-16T07:02:37.222Z,7.66
2019-04-16T07:03:33.460Z,7.67
2019-04-16T07:04:33.448Z,7.71
2019-04-16T07:05:33.437Z,7.81
2019-04-16T07:06:36.354Z,7.81
2019-04-16T07:07:39.946Z,7.88
2019-04-16T07:08:38.578Z,7.79
2019-04-16T07:09:41.493Z,7.91
2019-04-16T07:10:44.377Z,7.96
2019-04-16T07:11:34.385Z,8.02
2019-04-16T07:12:37.950Z,8.07
2019-04-16T07:13:34.357Z,8.09
2019-04-16T07:14:35.971Z,8.13
2019-04-16T07:15:33.333Z,8.13
2019-04-16T07:16:33.343Z,8.31
2019-04-16T07:17:34.404Z,8.27
2019-04-16T07:18:35.563Z,8.31
2019-04-16T07:19:34.293Z,8.29
2019-04-16T07:20:33.288Z,8.45
2019-04-16T07:21:33.276Z,8.45
2019-04-16T07:22:33.260Z,8.55
2019-04-16T07:23:33.334Z,8.45
2019-04-16T07:24:36.309Z,8.49
2019-04-16T07:25:39.754Z,8.60
2019-04-16T07:26:38.133Z,8.71
2019-04-16T07:27:37.810Z,8.80
2019-04-16T07:28:34.229Z,8.93
2019-04-16T07:29:33.799Z,8.96
2019-04-16T07:30:38.650Z,9.04
2019-04-16T07:31:34.928Z,9.04
2019-04-16T07:32:33.155Z,9.08
2019-04-16T07:33:33.145Z,9.26
2019-04-16T07:34:33.395Z,9.19
2019-04-16T07:35:33.134Z,9.31
2019-04-16T07:36:33.154Z,9.27
2019-04-16T07:37:33.841Z,9.27
2019-04-16T07:38:35.112Z,9.38
2019-04-16T07:39:36.973Z,9.38
2019-04-16T07:40:33.092Z,9.48
2019-04-16T07:41:33.081Z,9.48
2019-04-16T07:42:33.094Z,9.50
2019-04-16T07:43:33.046Z,9.53
2019-04-16T07:44:33.042Z,9.62
2019-04-16T07:45:33.015Z,9.67
2019-04-16T07:46:33.017Z,9.65
2019-04-16T07:47:33.013Z,9.67
2019-04-16T07:48:33.101Z,9.78
2019-04-16T07:49:32.984Z,9.81
2019-04-16T07:50:33.311Z,9.89
2019-04-16T07:51:35.845Z,9.86
2019-04-16T07:52:32.951Z,9.95
2019-04-16T07:53:32.949Z,9.98
2019-04-16T07:54:32.932Z,10.02
2019-04-16T07:55:32.928Z,10.07
2019-04-16T07:56:32.936Z,10.14
2019-04-16T07:57:32.914Z,10.11
2019-04-16T07:58:32.887Z,10.07
2019-04-16T07:59:33.004Z,10.14
2019-04-16T08:00:32.856Z,10.17
2019-04-16T08:01:32.855Z,10.18
2019-04-16T08:02:32.862Z,10.31
2019-04-16T08:03:32.854Z,10.29
2019-04-16T08:04:35.720Z,10.29
2019-04-16T08:05:32.814Z,10.35
2019-04-16T08:06:32.807Z,10.38
2019-04-16T08:07:32.801Z,10.46
2019-04-16T08:08:32.789Z,10.46
2019-04-16T08:09:33.775Z,10.47
2019-04-16T08:10:32.781Z,10.51
2019-04-16T08:11:32.741Z,10.57
2019-04-16T08:12:32.745Z,10.57
2019-04-16T08:13:33.746Z,10.54
2019-04-16T08:14:32.713Z,10.62
2019-04-16T08:15:32.724Z,10.65
2019-04-16T08:16:46.352Z,10.76
2019-04-16T08:17:33.721Z,10.73
2019-04-16T08:18:32.689Z,10.72
2019-04-16T08:19:37.281Z,10.84
2019-04-16T08:20:32.682Z,10.88
2019-04-16T08:21:32.659Z,10.99
2019-04-16T08:22:32.653Z,11.03
2019-04-16T08:23:32.622Z,11.05
2019-04-16T08:24:32.617Z,11.19
2019-04-16T08:25:34.043Z,11.21
2019-04-16T08:26:32.583Z,11.19
2019-04-16T08:27:32.605Z,11.31
2019-04-16T08:28:32.562Z,11.30
2019-04-16T08:29:32.557Z,11.35
2019-04-16T08:30:38.960Z,11.31
2019-04-16T08:31:33.542Z,11.41
2019-04-16T08:32:32.530Z,11.49
2019-04-16T08:33:32.514Z,11.49
2019-04-16T08:34:32.498Z,11.57
2019-04-16T08:35:32.491Z,11.48
2019-04-16T08:36:32.478Z,11.63
2019-04-16T08:37:32.516Z,11.64
2019-04-16T08:38:34.890Z,11.63
2019-04-16T08:39:32.443Z,11.63
2019-04-16T08:40:32.439Z,11.66
2019-04-16T08:41:32.421Z,11.69
2019-04-16T08:42:43.910Z,11.72
2019-04-16T08:43:33.419Z,11.77
2019-04-16T08:44:35.221Z,11.79
2019-04-16T08:45:32.399Z,11.84
2019-04-16T08:46:32.378Z,11.74
2019-04-16T08:47:32.370Z,11.93
2019-04-16T08:48:32.348Z,11.85
2019-04-16T08:49:32.345Z,11.90
2019-04-16T08:50:32.339Z,11.88
2019-04-16T08:51:36.981Z,11.90
2019-04-16T08:52:33.332Z,11.90
2019-04-16T08:53:35.442Z,12.05
2019-04-16T08:54:32.284Z,12.07
2019-04-16T08:55:32.290Z,12.13
2019-04-16T08:56:32.271Z,12.16
2019-04-16T08:57:32.894Z,12.13
2019-04-16T08:58:32.253Z,12.18
2019-04-16T08:59:32.261Z,12.33
2019-04-16T09:00:32.225Z,12.37
2019-04-16T09:01:32.209Z,12.33
2019-04-16T09:02:32.232Z,12.33
2019-04-16T09:03:32.201Z,12.36
2019-04-16T09:04:34.538Z,12.38
2019-04-16T09:05:32.169Z,12.46
2019-04-16T09:06:32.159Z,12.43
2019-04-16T09:07:32.163Z,12.52
2019-04-16T09:08:32.154Z,12.54
2019-04-16T09:09:32.142Z,12.48
2019-04-16T09:10:32.127Z,12.67
2019-04-16T09:11:35.106Z,12.74
2019-04-16T09:12:32.200Z,12.80
2019-04-16T09:13:32.099Z,12.79
2019-04-16T09:14:32.075Z,12.81
2019-04-16T09:15:32.067Z,12.87
2019-04-16T09:16:32.113Z,12.88
2019-04-16T09:17:32.039Z,12.95
2019-04-16T09:18:32.034Z,12.96
2019-04-16T09:19:32.032Z,13.06
2019-04-16T09:20:34.722Z,13.10
2019-04-16T09:21:32.997Z,13.12
2019-04-16T09:22:31.989Z,13.03
2019-04-16T09:23:32.004Z,13.07
2019-04-16T09:24:31.982Z,13.13
2019-04-16T09:25:31.968Z,13.17
2019-04-16T09:26:31.946Z,13.36
2019-04-16T09:27:34.128Z,13.39
2019-04-16T09:28:32.169Z,13.44
2019-04-16T09:29:31.921Z,13.47
2019-04-16T09:30:31.930Z,13.55
2019-04-16T09:31:31.892Z,13.59
2019-04-16T09:32:31.888Z,13.65
2019-04-16T09:33:33.593Z,13.68
2019-04-16T09:34:31.860Z,13.63
2019-04-16T09:35:31.848Z,13.65
2019-04-16T09:36:31.840Z,13.65
2019-04-16T09:37:31.870Z,13.80
2019-04-16T09:38:31.838Z,13.73
2019-04-16T09:39:31.836Z,13.86
2019-04-16T09:40:31.797Z,13.88
2019-04-16T09:41:31.787Z,13.94
2019-04-16T09:42:31.776Z,14.04
2019-04-16T09:43:31.781Z,14.11
2019-04-16T09:44:35.209Z,14.13
2019-04-16T09:45:33.896Z,14.20
2019-04-16T09:46:50.355Z,14.29
2019-04-16T09:47:33.453Z,14.36
2019-04-16T09:48:34.896Z,14.35
2019-04-16T09:49:34.327Z,14.57
2019-04-16T09:50:32.693Z,14.64
2019-04-16T09:51:31.691Z,14.63
2019-04-16T09:52:31.667Z,14.69
2019-04-16T09:53:34.120Z,14.79
2019-04-16T09:54:31.649Z,14.91
2019-04-16T09:55:31.637Z,15.00
2019-04-16T09:56:31.625Z,15.11
2019-04-16T09:57:32.422Z,15.05
2019-04-16T09:58:31.628Z,15.16
2019-04-16T09:59:31.599Z,15.19
2019-04-16T10:00:31.584Z,15.25
2019-04-16T10:01:31.574Z,15.15
2019-04-16T10:02:31.562Z,15.25
2019-04-16T10:03:31.566Z,15.34
2019-04-16T10:04:31.557Z,15.41
2019-04-16T10:05:31.553Z,15.44
2019-04-16T10:06:31.520Z,15.44
2019-04-16T10:07:31.527Z,15.58
2019-04-16T10:08:31.499Z,15.48
2019-04-16T10:09:31.507Z,15.43
2019-04-16T10:10:31.482Z,15.48
2019-04-16T10:11:32.737Z,15.46
2019-04-16T10:12:31.467Z,15.46
2019-04-16T10:13:35.741Z,15.49
2019-04-16T10:14:31.483Z,15.55
2019-04-16T10:15:31.428Z,15.58
2019-04-16T10:16:31.438Z,15.68
2019-04-16T10:17:31.426Z,15.62
2019-04-16T10:18:34.636Z,15.68
2019-04-16T10:19:31.414Z,15.68
2019-04-16T10:20:31.382Z,15.66
2019-04-16T10:21:31.378Z,15.58
2019-04-16T10:22:31.370Z,15.67
2019-04-16T10:23:31.358Z,15.66
2019-04-16T10:24:31.357Z,15.73
2019-04-16T10:25:33.762Z,15.76
2019-04-16T10:26:31.327Z,15.81
2019-04-16T10:27:32.503Z,15.80
2019-04-16T10:28:33.882Z,15.96
2019-04-16T10:29:32.308Z,16.11
2019-04-16T10:30:31.310Z,16.13
2019-04-16T10:31:31.254Z,16.22
2019-04-16T10:32:31.252Z,16.23
2019-04-16T10:33:31.256Z,16.26
2019-04-16T10:34:31.258Z,16.30
2019-04-16T10:35:31.213Z,16.42
2019-04-16T10:36:31.221Z,16.50
2019-04-16T10:37:31.192Z,16.51
2019-04-16T10:38:31.187Z,16.54
2019-04-16T10:39:31.206Z,16.66
2019-04-16T10:40:31.159Z,16.63
2019-04-16T10:41:31.150Z,16.67
2019-04-16T10:42:31.140Z,16.75
2019-04-16T10:43:43.803Z,16.87
2019-04-16T10:44:32.162Z,16.88
2019-04-16T10:45:31.108Z,16.80
2019-04-16T10:46:31.214Z,16.72
2019-04-16T10:47:31.089Z,16.72
2019-04-16T10:48:31.086Z,16.72
2019-04-16T10:49:31.086Z,16.84
2019-04-16T10:50:31.081Z,16.91
2019-04-16T10:51:31.046Z,16.92
2019-04-16T10:52:31.034Z,17.07
2019-04-16T10:53:31.030Z,17.17
2019-04-16T10:54:33.677Z,17.21
2019-04-16T10:55:32.049Z,17.42
2019-04-16T10:56:31.026Z,17.27
2019-04-16T10:57:31.008Z,17.45
2019-04-16T10:58:30.985Z,17.43
2019-04-16T10:59:30.997Z,17.32
2019-04-16T11:00:30.950Z,17.60
2019-04-16T11:01:34.737Z,17.62
2019-04-16T11:02:30.927Z,17.86
2019-04-16T11:03:34.465Z,17.87
2019-04-16T11:04:30.920Z,17.96
2019-04-16T11:05:30.895Z,18.05
2019-04-16T11:06:31.155Z,18.09
2019-04-16T11:07:30.874Z,18.16
2019-04-16T11:08:30.867Z,18.32
2019-04-16T11:09:30.881Z,18.39
2019-04-16T11:10:30.858Z,18.42
2019-04-16T11:11:30.853Z,18.56
2019-04-16T11:12:30.833Z,18.51
2019-04-16T11:13:30.826Z,18.59
2019-04-16T11:14:30.813Z,18.71
2019-04-16T11:15:30.812Z,18.74
2019-04-16T11:16:30.777Z,18.69
2019-04-16T11:17:30.783Z,18.76
2019-04-16T11:18:30.782Z,18.83
2019-04-16T11:19:30.745Z,18.89
2019-04-16T11:20:30.747Z,18.94
2019-04-16T11:21:30.757Z,19.05
2019-04-16T11:22:30.714Z,19.07
2019-04-16T11:23:30.703Z,19.20
2019-04-16T11:24:30.708Z,19.28
2019-04-16T11:25:30.705Z,19.30
2019-04-16T11:26:30.671Z,19.45
2019-04-16T11:27:30.664Z,19.47
2019-04-16T11:28:30.684Z,19.61
2019-04-16T11:29:30.655Z,19.65
2019-04-16T11:30:30.668Z,19.78
2019-04-16T11:31:30.641Z,19.71
2019-04-16T11:32:30.616Z,19.87
2019-04-16T11:33:30.606Z,20.01
2019-04-16T11:34:30.587Z,20.00
2019-04-16T11:35:30.657Z,20.10
2019-04-16T11:36:31.687Z,20.16
2019-04-16T11:37:35.818Z,20.22
2019-04-16T11:38:31.552Z,20.22
2019-04-16T11:39:30.554Z,20.38
2019-04-16T11:40:30.615Z,20.42
2019-04-16T11:41:30.544Z,20.50
2019-04-16T11:42:30.546Z,20.57
2019-04-16T11:43:30.513Z,20.72
2019-04-16T11:44:30.507Z,20.85
2019-04-16T11:45:30.520Z,20.88
2019-04-16T11:46:30.528Z,20.91
2019-04-16T11:47:33.877Z,21.05
2019-04-16T11:48:30.437Z,21.08
2019-04-16T11:49:30.430Z,21.19
2019-04-16T11:50:30.428Z,21.30
2019-04-16T11:51:30.418Z,21.30
2019-04-16T11:52:30.499Z,21.46
2019-04-16T11:53:30.410Z,21.58
2019-04-16T11:54:30.395Z,21.59
2019-04-16T11:55:30.402Z,21.77
2019-04-16T11:56:30.414Z,21.91
2019-04-16T11:57:33.368Z,21.86
2019-04-16T11:58:30.374Z,22.08
2019-04-16T11:59:30.351Z,22.24
2019-04-16T12:00:30.356Z,22.23
2019-04-16T12:01:30.319Z,22.51
2019-04-16T12:02:30.334Z,22.56
2019-04-16T12:03:35.025Z,22.78
2019-04-16T12:04:31.268Z,22.78
2019-04-16T12:05:30.283Z,22.89
2019-04-16T12:06:30.283Z,23.09
2019-04-16T12:07:30.278Z,23.22
2019-04-16T12:08:30.235Z,23.39
2019-04-16T12:09:30.218Z,23.57
2019-04-16T12:10:30.247Z,23.75
2019-04-16T12:11:30.236Z,23.92
2019-04-16T12:12:30.211Z,24.19
2019-04-16T12:13:30.206Z,24.44
2019-04-16T12:14:34.498Z,24.86
2019-04-16T12:15:30.159Z,25.17
2019-04-16T12:16:30.156Z,25.71
2019-04-16T12:17:30.140Z,26.11
2019-04-16T12:18:31.927Z,26.87
2019-04-16T12:19:30.114Z,27.49
2019-04-16T12:20:30.115Z,28.01
2019-04-16T12:21:30.143Z,28.82
2019-04-16T12:22:30.088Z,29.71
2019-04-16T12:23:30.141Z,30.59
2019-04-16T12:24:30.075Z,30.88
2019-04-16T12:25:30.118Z,30.28
2019-04-16T12:26:30.108Z,31.23
2019-04-16T12:27:30.032Z,30.93
2019-04-16T12:28:30.029Z,31.13
2019-04-16T12:29:30.015Z,31.60
2019-04-16T12:30:30.043Z,31.42
2019-04-16T12:31:30.023Z,30.32
2019-04-16T12:32:29.992Z,29.48
2019-04-16T12:33:30.004Z,28.65
2019-04-16T12:34:29.966Z,27.88
2019-04-16T12:35:31.039Z,27.12
2019-04-16T12:36:29.970Z,26.56
2019-04-16T12:37:29.947Z,26.11
2019-04-16T12:38:29.961Z,25.67
2019-04-16T12:39:29.936Z,25.41
2019-04-16T12:40:29.913Z,25.16
2019-04-16T12:41:29.906Z,24.75
2019-04-16T12:42:29.925Z,24.51
2019-04-16T12:43:29.872Z,24.39
2019-04-16T12:44:44.115Z,24.04
2019-04-16T12:45:30.870Z,23.68
2019-04-16T12:46:29.842Z,23.41
2019-04-16T12:47:29.840Z,23.29
2019-04-16T12:48:29.864Z,22.96
2019-04-16T12:49:29.809Z,22.78
2019-04-16T12:50:29.796Z,22.59
2019-04-16T12:51:29.813Z,22.56
2019-04-16T12:52:29.784Z,22.45
2019-04-16T12:53:29.797Z,22.60
2019-04-16T12:54:29.783Z,22.46
2019-04-16T12:55:31.712Z,22.41
2019-04-16T12:56:29.786Z,22.33
2019-04-16T12:57:29.788Z,22.24
2019-04-16T12:58:29.716Z,22.19
2019-04-16T12:59:29.706Z,22.12
2019-04-16T13:00:31.612Z,22.20
2019-04-16T13:01:29.683Z,22.08
2019-04-16T13:02:29.686Z,22.01
2019-04-16T13:03:29.661Z,21.98
2019-04-16T13:04:29.654Z,22.04
2019-04-16T13:05:29.640Z,22.04
2019-04-16T13:06:29.634Z,21.99
2019-04-16T13:07:29.635Z,22.02